createdAt,value
2022-12-31T00:00:08.878Z,93.20
2022-12-31T00:02:36.305Z,93.10
2022-12-31T00:05:03.510Z,93.20
2022-12-31T00:07:30.360Z,93.10
2022-12-31T00:09:57.239Z,93.10
2022-12-31T00:12:24.831Z,93.00
2022-12-31T00:14:51.820Z,93.10
2022-12-31T00:17:18.729Z,93.10
2022-12-31T00:19:45.537Z,93.10
2022-12-31T00:22:12.505Z,93.10
2022-12-31T00:24:39.211Z,93.10
2022-12-31T00:27:05.958Z,93.10
2022-12-31T00:29:32.903Z,93.20
2022-12-31T00:31:59.652Z,93.00
2022-12-31T00:34:26.428Z,93.00
2022-12-31T00:36:53.631Z,93.10
2022-12-31T00:39:20.349Z,93.20
2022-12-31T00:41:47.132Z,93.20
2022-12-31T00:44:14.484Z,93.30
2022-12-31T00:46:47.364Z,93.30
2022-12-31T00:49:14.296Z,93.10
2022-12-31T00:51:41.034Z,93.00
2022-12-31T00:54:08.710Z,93.00
2022-12-31T00:56:35.622Z,93.10
2022-12-31T00:59:02.549Z,93.10
2022-12-31T01:01:30.959Z,93.10
2022-12-31T01:03:59.258Z,93.00
2022-12-31T01:06:26.136Z,93.00
2022-12-31T01:08:53.741Z,93.00
2022-12-31T01:11:24.120Z,93.00
2022-12-31T01:14:03.134Z,93.00
2022-12-31T01:16:32.142Z,93.10
2022-12-31T01:19:07.383Z,93.10
2022-12-31T01:21:35.048Z,93.10
2022-12-31T01:24:01.805Z,92.90
2022-12-31T01:26:29.102Z,92.90
2022-12-31T01:28:55.878Z,92.90
2022-12-31T01:31:23.201Z,93.00
2022-12-31T01:33:50.389Z,93.10
2022-12-31T01:36:26.301Z,93.00
2022-12-31T01:38:54.464Z,93.10
2022-12-31T01:41:22.959Z,93.10
2022-12-31T01:43:51.749Z,93.00
2022-12-31T01:46:27.524Z,93.10
2022-12-31T01:48:56.785Z,93.10
2022-12-31T01:51:25.334Z,93.00
2022-12-31T01:53:52.249Z,93.10
2022-12-31T01:56:21.293Z,93.10
2022-12-31T01:58:50.082Z,93.10
2022-12-31T02:01:19.908Z,93.10
2022-12-31T02:03:46.827Z,93.50
2022-12-31T02:06:45.718Z,93.00
2022-12-31T02:09:13.976Z,93.00
2022-12-31T02:11:40.842Z,93.00
2022-12-31T02:14:15.770Z,93.00
2022-12-31T02:16:42.666Z,93.00
2022-12-31T02:19:15.542Z,93.00
2022-12-31T02:21:42.393Z,93.20
2022-12-31T02:24:15.755Z,93.00
2022-12-31T02:26:57.283Z,92.90
2022-12-31T02:29:42.739Z,92.90
2022-12-31T02:32:17.759Z,93.00
2022-12-31T02:34:50.952Z,93.00
2022-12-31T02:37:20.018Z,93.00
2022-12-31T02:39:47.525Z,93.00
2022-12-31T02:42:14.332Z,93.20
2022-12-31T02:44:41.970Z,93.00
2022-12-31T02:47:08.673Z,93.00
2022-12-31T02:49:53.480Z,92.90
2022-12-31T02:52:23.325Z,92.90
2022-12-31T02:54:56.184Z,93.00
2022-12-31T02:57:28.903Z,93.00
2022-12-31T03:00:20.040Z,93.00
2022-12-31T03:02:48.096Z,93.20
2022-12-31T03:05:16.381Z,93.10
2022-12-31T03:07:43.771Z,93.10
2022-12-31T03:10:10.649Z,93.00
2022-12-31T03:12:49.676Z,93.00
2022-12-31T03:15:22.445Z,92.90
2022-12-31T03:18:09.760Z,93.00
2022-12-31T03:20:58.089Z,93.00
2022-12-31T03:23:24.979Z,93.10
2022-12-31T03:25:53.302Z,93.00
2022-12-31T03:28:21.768Z,93.00
2022-12-31T03:30:50.338Z,92.90
2022-12-31T03:33:17.463Z,92.90
2022-12-31T03:35:45.455Z,93.00
2022-12-31T03:38:12.514Z,93.00
2022-12-31T03:40:43.512Z,93.10
2022-12-31T03:43:10.254Z,93.00
2022-12-31T03:45:37.421Z,93.00
2022-12-31T03:48:05.443Z,92.90
2022-12-31T03:50:32.308Z,92.90
2022-12-31T03:52:59.456Z,92.90
2022-12-31T03:55:26.242Z,92.90
2022-12-31T03:57:53.040Z,93.00
2022-12-31T04:00:20.682Z,92.90
2022-12-31T04:02:48.595Z,93.00
2022-12-31T04:05:16.285Z,93.10
2022-12-31T04:07:43.252Z,93.00
2022-12-31T04:10:12.191Z,92.90
2022-12-31T04:12:39.193Z,92.90
2022-12-31T04:15:06.845Z,92.90
2022-12-31T04:17:33.669Z,93.00
2022-12-31T04:20:00.652Z,93.10
2022-12-31T04:22:27.496Z,93.20
2022-12-31T04:24:54.341Z,93.00
2022-12-31T04:27:21.101Z,93.00
2022-12-31T04:29:48.065Z,93.00
2022-12-31T04:32:14.912Z,93.00
2022-12-31T04:34:41.790Z,92.90
2022-12-31T04:37:08.704Z,93.00
2022-12-31T04:39:35.592Z,93.00
2022-12-31T04:42:02.335Z,93.00
2022-12-31T04:44:29.299Z,93.00
2022-12-31T04:46:56.141Z,92.90
2022-12-31T04:49:22.836Z,92.90
2022-12-31T04:51:49.726Z,93.00
2022-12-31T04:54:16.606Z,93.00
2022-12-31T04:56:43.514Z,93.10
2022-12-31T04:59:10.516Z,93.00
2022-12-31T05:01:38.689Z,93.00
2022-12-31T05:04:05.899Z,93.10
2022-12-31T05:06:32.944Z,92.90
2022-12-31T05:09:00.017Z,93.00
2022-12-31T05:11:26.762Z,93.00
2022-12-31T05:13:53.653Z,93.00
2022-12-31T05:16:20.538Z,93.00
2022-12-31T05:18:47.510Z,93.00
2022-12-31T05:21:17.837Z,93.00
2022-12-31T05:23:44.647Z,93.00
2022-12-31T05:26:19.080Z,93.00
2022-12-31T05:28:57.095Z,92.90
2022-12-31T05:31:23.813Z,93.00
2022-12-31T05:33:50.546Z,93.10
2022-12-31T05:36:17.325Z,93.10
2022-12-31T05:38:44.030Z,93.10
2022-12-31T05:41:10.958Z,93.20
2022-12-31T05:43:37.791Z,93.00
2022-12-31T05:46:05.137Z,93.00
2022-12-31T05:48:32.207Z,93.00
2022-12-31T05:50:59.218Z,93.00
2022-12-31T05:53:25.927Z,93.00
2022-12-31T05:55:52.675Z,93.00
2022-12-31T05:58:19.722Z,93.10
2022-12-31T06:00:46.579Z,93.10
2022-12-31T06:03:13.573Z,93.00
2022-12-31T06:05:41.520Z,93.00
2022-12-31T06:08:08.678Z,92.90
2022-12-31T06:10:35.491Z,93.00
2022-12-31T06:13:02.368Z,93.00
2022-12-31T06:15:29.263Z,93.10
2022-12-31T06:17:56.293Z,93.00
2022-12-31T06:20:23.193Z,93.10
2022-12-31T06:22:50.072Z,93.10
2022-12-31T06:25:16.932Z,93.00
2022-12-31T06:27:43.951Z,93.00
2022-12-31T06:30:11.164Z,93.00
2022-12-31T06:32:39.433Z,93.00
2022-12-31T06:35:06.904Z,93.00
2022-12-31T06:37:33.701Z,93.00
2022-12-31T06:40:00.756Z,93.10
2022-12-31T06:42:31.264Z,93.10
2022-12-31T06:44:58.855Z,93.00
2022-12-31T06:47:26.026Z,93.00
2022-12-31T06:49:53.312Z,92.90
2022-12-31T06:52:20.820Z,93.00
2022-12-31T06:54:47.953Z,93.10
2022-12-31T06:57:15.348Z,93.10
2022-12-31T06:59:42.353Z,93.10
2022-12-31T07:02:14.909Z,93.10
2022-12-31T07:04:50.597Z,93.10
2022-12-31T07:07:17.352Z,93.10
2022-12-31T07:09:52.946Z,93.00
2022-12-31T07:12:34.778Z,93.20
2022-12-31T07:15:06.383Z,93.00
2022-12-31T07:17:53.350Z,93.20
2022-12-31T07:20:20.450Z,93.10
2022-12-31T07:22:47.318Z,93.10
2022-12-31T07:25:15.290Z,93.10
2022-12-31T07:27:42.108Z,93.00
2022-12-31T07:30:09.257Z,93.00
2022-12-31T07:32:45.100Z,93.10
2022-12-31T07:35:17.762Z,93.10
2022-12-31T07:37:56.689Z,93.20
2022-12-31T07:40:23.659Z,93.20
2022-12-31T07:42:56.662Z,93.20
2022-12-31T07:45:27.230Z,93.10
2022-12-31T07:47:57.514Z,93.00
2022-12-31T07:50:29.210Z,93.00
2022-12-31T07:52:56.108Z,93.00
2022-12-31T07:55:22.991Z,93.10
2022-12-31T07:58:03.489Z,93.10
2022-12-31T08:00:30.846Z,93.20
2022-12-31T08:03:06.928Z,93.10
2022-12-31T08:05:42.929Z,93.10
2022-12-31T08:08:24.562Z,93.00
2022-12-31T08:11:09.611Z,93.00
2022-12-31T08:13:36.562Z,93.20
2022-12-31T08:16:03.495Z,93.10
2022-12-31T08:18:30.403Z,93.10
2022-12-31T08:21:00.162Z,93.10
2022-12-31T08:23:45.477Z,93.10
2022-12-31T08:26:21.956Z,93.10
2022-12-31T08:29:00.767Z,93.00
2022-12-31T08:31:27.736Z,93.00
2022-12-31T08:34:00.689Z,93.10
2022-12-31T08:36:32.162Z,93.20
2022-12-31T08:39:21.909Z,93.20
2022-12-31T08:41:50.545Z,93.20
2022-12-31T08:44:20.072Z,93.10
2022-12-31T08:46:52.685Z,93.00
2022-12-31T08:49:19.735Z,93.00
2022-12-31T08:51:46.821Z,93.20
2022-12-31T08:54:13.666Z,93.30
2022-12-31T08:56:40.360Z,93.20
2022-12-31T08:59:16.423Z,93.30
2022-12-31T09:01:46.174Z,93.20
2022-12-31T09:04:18.185Z,93.20
2022-12-31T09:06:57.584Z,93.00
2022-12-31T09:09:42.622Z,93.00
2022-12-31T09:12:22.301Z,93.00
2022-12-31T09:14:59.046Z,93.00
2022-12-31T09:17:33.082Z,93.10
2022-12-31T09:20:00.273Z,93.10
2022-12-31T09:22:27.192Z,93.10
2022-12-31T09:27:40.883Z,93.40
2022-12-31T09:30:16.215Z,93.00
2022-12-31T09:32:43.133Z,93.10
2022-12-31T09:35:15.758Z,93.10
2022-12-31T09:37:45.716Z,93.10
2022-12-31T09:40:35.578Z,93.10
2022-12-31T09:43:20.194Z,93.20
2022-12-31T09:46:03.290Z,93.30
2022-12-31T09:48:42.396Z,93.30
2022-12-31T09:51:25.216Z,93.30
2022-12-31T09:54:11.144Z,93.30
2022-12-31T09:56:59.131Z,93.20
2022-12-31T09:59:26.322Z,93.30
2022-12-31T10:01:59.185Z,93.30
2022-12-31T10:04:26.196Z,93.30
2022-12-31T10:07:01.742Z,93.30
2022-12-31T10:09:28.636Z,93.30
2022-12-31T10:12:01.299Z,93.30
2022-12-31T10:14:33.834Z,93.30
2022-12-31T10:17:14.090Z,93.30
2022-12-31T10:19:59.751Z,93.40
2022-12-31T10:22:29.403Z,93.40
2022-12-31T10:25:14.740Z,93.40
2022-12-31T10:28:07.800Z,93.40
2022-12-31T10:30:35.610Z,93.40
2022-12-31T10:33:14.934Z,93.40
2022-12-31T10:35:53.829Z,93.50
2022-12-31T10:38:20.527Z,93.50
2022-12-31T10:41:13.411Z,93.60
2022-12-31T10:43:58.662Z,93.60
2022-12-31T10:46:45.765Z,93.60
2022-12-31T10:49:15.523Z,93.70
2022-12-31T10:51:53.892Z,93.70
2022-12-31T10:54:29.635Z,93.60
2022-12-31T10:56:56.524Z,93.50
2022-12-31T10:59:38.624Z,93.60
2022-12-31T11:02:38.828Z,93.60
2022-12-31T11:05:23.788Z,93.70
2022-12-31T11:08:17.013Z,93.70
2022-12-31T11:10:43.803Z,93.70
2022-12-31T11:13:16.306Z,93.70
2022-12-31T11:15:48.339Z,93.70
2022-12-31T11:18:52.255Z,93.60
2022-12-31T11:21:28.768Z,93.70
2022-12-31T11:24:03.400Z,93.70
2022-12-31T11:26:32.810Z,93.70
2022-12-31T11:29:18.284Z,93.70
2022-12-31T11:31:45.121Z,93.70
2022-12-31T11:34:32.100Z,93.70
2022-12-31T11:37:04.990Z,93.70
2022-12-31T11:39:39.964Z,93.70
2022-12-31T11:42:19.265Z,93.60
2022-12-31T11:44:52.094Z,93.80
2022-12-31T11:47:25.005Z,93.70
2022-12-31T11:49:57.789Z,93.70
2022-12-31T11:52:27.615Z,93.70
2022-12-31T11:55:00.517Z,93.70
2022-12-31T11:57:30.410Z,93.70
2022-12-31T11:59:58.947Z,93.70
2022-12-31T12:02:32.425Z,93.70
2022-12-31T12:05:03.838Z,93.80
2022-12-31T12:07:35.170Z,93.80
2022-12-31T12:10:04.583Z,93.70
2022-12-31T12:12:41.220Z,93.70
2022-12-31T12:15:10.048Z,93.70
2022-12-31T12:17:37.243Z,93.60
2022-12-31T12:20:14.717Z,93.60
2022-12-31T12:22:49.626Z,93.70
2022-12-31T12:25:19.175Z,93.80
2022-12-31T12:27:46.073Z,93.80
2022-12-31T12:30:20.785Z,93.70
2022-12-31T12:33:01.374Z,93.70
2022-12-31T12:35:37.034Z,93.80
2022-12-31T12:38:23.202Z,93.70
2022-12-31T12:40:54.529Z,93.60
2022-12-31T12:43:27.213Z,93.70
2022-12-31T12:45:56.308Z,93.70
2022-12-31T12:48:31.181Z,94.00
2022-12-31T12:50:58.428Z,93.80
2022-12-31T12:53:32.478Z,93.80
2022-12-31T12:56:03.003Z,93.80
2022-12-31T12:58:35.628Z,93.80
2022-12-31T13:01:11.572Z,93.80
2022-12-31T13:04:23.713Z,93.80
2022-12-31T13:06:55.763Z,93.70
2022-12-31T13:09:22.505Z,93.80
2022-12-31T13:11:49.441Z,93.80
2022-12-31T13:14:36.492Z,93.80
2022-12-31T13:17:06.320Z,93.80
2022-12-31T13:19:33.069Z,93.70
2022-12-31T13:22:05.863Z,93.80
2022-12-31T13:24:54.023Z,93.80
2022-12-31T13:27:28.814Z,93.80
2022-12-31T13:29:58.208Z,93.80
2022-12-31T13:32:45.061Z,93.90
2022-12-31T13:35:26.790Z,93.80
2022-12-31T13:38:03.368Z,93.90
2022-12-31T13:40:55.289Z,93.90
2022-12-31T13:43:22.079Z,93.90
2022-12-31T13:45:53.468Z,93.80
2022-12-31T13:48:24.821Z,93.80
2022-12-31T13:50:55.198Z,93.90
2022-12-31T13:53:26.811Z,93.70
2022-12-31T13:55:58.775Z,93.80
2022-12-31T13:58:25.584Z,93.80
2022-12-31T14:01:01.263Z,93.80
2022-12-31T14:03:30.866Z,93.80
2022-12-31T14:06:07.046Z,93.90
2022-12-31T14:08:33.840Z,93.80
2022-12-31T14:11:05.070Z,93.80
2022-12-31T14:13:38.741Z,93.80
2022-12-31T14:16:23.791Z,93.90
2022-12-31T14:19:10.404Z,93.80
2022-12-31T14:21:47.315Z,93.70
2022-12-31T14:24:14.254Z,93.70
2022-12-31T14:26:43.746Z,93.70
2022-12-31T14:29:10.548Z,93.70
2022-12-31T14:31:43.305Z,93.70
2022-12-31T14:34:16.137Z,93.80
2022-12-31T14:36:42.965Z,93.80
2022-12-31T14:39:42.019Z,93.70
2022-12-31T14:42:27.361Z,93.70
2022-12-31T14:44:59.933Z,93.80
2022-12-31T14:47:26.650Z,93.70
2022-12-31T14:50:05.320Z,93.70
2022-12-31T14:52:32.314Z,93.70
2022-12-31T14:55:15.133Z,93.80
2022-12-31T14:58:25.326Z,93.80
2022-12-31T15:00:33.392Z,93.70
2022-12-31T15:03:04.846Z,93.70
2022-12-31T15:05:33.648Z,93.70
2022-12-31T15:08:11.977Z,93.60
2022-12-31T15:11:00.552Z,93.60
2022-12-31T15:13:46.021Z,93.70
2022-12-31T15:16:26.285Z,93.70
2022-12-31T15:19:02.943Z,93.70
2022-12-31T15:21:53.056Z,93.60
2022-12-31T15:24:24.919Z,93.60
2022-12-31T15:26:56.254Z,93.70
2022-12-31T15:29:49.008Z,93.60
2022-12-31T15:32:20.178Z,93.70
2022-12-31T15:34:46.969Z,93.70
2022-12-31T15:37:32.362Z,93.60
2022-12-31T15:40:07.400Z,93.60
2022-12-31T15:42:47.140Z,93.70
2022-12-31T15:45:37.437Z,93.70
2022-12-31T15:48:08.235Z,93.70
2022-12-31T15:50:36.806Z,93.70
2022-12-31T15:53:04.213Z,93.70
2022-12-31T15:55:31.047Z,93.80
2022-12-31T15:58:05.242Z,93.70
2022-12-31T16:00:43.872Z,93.60
2022-12-31T16:03:19.991Z,93.50
2022-12-31T16:05:46.847Z,93.60
2022-12-31T16:08:17.261Z,93.70
2022-12-31T16:10:44.379Z,93.50
2022-12-31T16:13:18.226Z,93.60
2022-12-31T16:15:48.788Z,93.60
2022-12-31T16:18:20.760Z,93.60
2022-12-31T16:20:52.079Z,93.60
2022-12-31T16:23:21.051Z,93.60
2022-12-31T16:25:48.543Z,93.60
2022-12-31T16:28:23.786Z,93.40
2022-12-31T16:31:20.024Z,93.50
2022-12-31T16:33:47.140Z,93.30
2022-12-31T16:36:21.462Z,93.40
2022-12-31T16:38:48.592Z,93.50
2022-12-31T16:41:16.783Z,93.50
2022-12-31T16:43:43.883Z,93.50
2022-12-31T16:46:16.902Z,93.50
2022-12-31T16:48:51.938Z,93.50
2022-12-31T16:51:20.569Z,93.40
2022-12-31T16:53:48.164Z,93.60
2022-12-31T16:56:22.339Z,93.50
2022-12-31T16:58:50.131Z,93.50
2022-12-31T17:01:27.818Z,93.50
2022-12-31T17:03:59.733Z,93.40
2022-12-31T17:06:28.595Z,93.40
2022-12-31T17:08:55.650Z,93.50
2022-12-31T17:11:33.126Z,93.50
2022-12-31T17:14:07.868Z,93.50
2022-12-31T17:16:40.222Z,93.60
2022-12-31T17:19:07.229Z,93.60
2022-12-31T17:21:33.992Z,93.60
2022-12-31T17:24:03.364Z,93.60
2022-12-31T17:26:31.227Z,93.60
2022-12-31T17:28:59.151Z,93.60
2022-12-31T17:31:25.899Z,93.60
2022-12-31T17:34:04.552Z,93.60
2022-12-31T17:36:31.418Z,93.60
2022-12-31T17:39:10.691Z,93.60
2022-12-31T17:41:37.474Z,93.60
2022-12-31T17:44:04.339Z,93.60
2022-12-31T17:46:31.408Z,93.60
2022-12-31T17:49:02.202Z,93.60
2022-12-31T17:51:28.965Z,93.60
2022-12-31T17:53:55.747Z,93.70
2022-12-31T17:56:22.601Z,93.70
2022-12-31T17:58:51.003Z,93.70
2022-12-31T18:01:19.167Z,93.70
2022-12-31T18:03:47.930Z,93.70
2022-12-31T18:06:16.993Z,93.80
2022-12-31T18:08:44.068Z,93.60
2022-12-31T18:11:18.203Z,93.70
2022-12-31T18:13:45.099Z,93.70
2022-12-31T18:16:11.970Z,93.70
2022-12-31T18:18:40.271Z,93.70
2022-12-31T18:21:08.039Z,93.70
2022-12-31T18:23:39.014Z,93.70
2022-12-31T18:26:05.822Z,93.70
2022-12-31T18:28:32.605Z,93.70
2022-12-31T18:30:59.329Z,93.70
2022-12-31T18:33:26.908Z,93.70
2022-12-31T18:36:10.300Z,93.70
2022-12-31T18:38:37.893Z,93.80
2022-12-31T18:41:05.249Z,93.80
2022-12-31T18:43:32.208Z,93.90
2022-12-31T18:45:59.166Z,93.80
2022-12-31T18:48:26.000Z,93.80
2022-12-31T18:50:52.826Z,93.80
2022-12-31T18:53:21.061Z,93.80
2022-12-31T18:55:55.246Z,93.90
2022-12-31T18:58:22.573Z,93.90
2022-12-31T19:00:50.386Z,93.90
2022-12-31T19:03:18.467Z,93.90
2022-12-31T19:05:49.186Z,93.90
2022-12-31T19:08:19.346Z,94.00
2022-12-31T19:10:46.560Z,93.90
2022-12-31T19:13:14.140Z,94.20
2022-12-31T19:15:43.661Z,94.00
2022-12-31T19:18:11.222Z,93.90
2022-12-31T19:20:38.977Z,93.90
2022-12-31T19:23:06.038Z,94.00
2022-12-31T19:25:34.035Z,94.00
2022-12-31T19:28:01.649Z,94.10
2022-12-31T19:30:33.256Z,94.10
2022-12-31T19:33:00.378Z,94.00
2022-12-31T19:35:27.560Z,94.10
2022-12-31T19:37:54.972Z,94.10
2022-12-31T19:40:24.104Z,94.00
2022-12-31T19:42:51.554Z,94.00
2022-12-31T19:45:19.838Z,94.00
2022-12-31T19:47:46.703Z,94.00
2022-12-31T19:50:14.941Z,94.00
2022-12-31T19:52:42.386Z,94.10
2022-12-31T19:55:11.888Z,94.10
2022-12-31T19:57:38.827Z,94.10
2022-12-31T20:00:06.355Z,94.10
2022-12-31T20:02:33.249Z,94.10
2022-12-31T20:05:00.403Z,94.10
2022-12-31T20:07:27.434Z,94.00
2022-12-31T20:09:54.375Z,94.10
2022-12-31T20:12:21.355Z,94.10
2022-12-31T20:14:48.278Z,94.10
2022-12-31T20:17:15.082Z,94.10
2022-12-31T20:19:42.022Z,94.20
2022-12-31T20:22:08.913Z,94.20
2022-12-31T20:24:35.711Z,94.20
2022-12-31T20:27:02.660Z,94.10
2022-12-31T20:29:29.659Z,94.20
2022-12-31T20:31:56.553Z,94.10
2022-12-31T20:34:23.429Z,94.20
2022-12-31T20:36:50.142Z,94.30
2022-12-31T20:39:16.854Z,94.30
2022-12-31T20:41:43.898Z,94.30
2022-12-31T20:44:10.886Z,94.40
2022-12-31T20:46:37.762Z,94.30
2022-12-31T20:49:05.106Z,94.30
2022-12-31T20:51:33.344Z,94.30
2022-12-31T20:54:07.470Z,94.30
2022-12-31T20:56:35.390Z,94.30
2022-12-31T20:59:02.562Z,94.30
2022-12-31T21:01:55.180Z,94.30
2022-12-31T21:04:16.586Z,94.20
2022-12-31T21:06:43.640Z,94.20
2022-12-31T21:09:10.549Z,94.20
2022-12-31T21:11:55.693Z,94.20
2022-12-31T21:14:22.598Z,94.30
2022-12-31T21:16:49.312Z,94.20
2022-12-31T21:19:16.294Z,94.20
2022-12-31T21:21:43.635Z,94.20
2022-12-31T21:24:10.492Z,94.20
2022-12-31T21:26:37.323Z,94.20
2022-12-31T21:29:04.187Z,94.20
2022-12-31T21:31:30.982Z,94.20
2022-12-31T21:33:57.939Z,94.20
2022-12-31T21:36:24.721Z,94.20
2022-12-31T21:38:51.435Z,94.20
2022-12-31T21:41:36.954Z,94.20
2022-12-31T21:44:04.071Z,94.30
2022-12-31T21:46:30.885Z,94.30
2022-12-31T21:48:58.600Z,94.30
2022-12-31T21:51:25.446Z,94.30
2022-12-31T21:53:52.307Z,94.30
2022-12-31T21:56:21.220Z,94.40
2022-12-31T21:59:12.190Z,94.30
2022-12-31T22:01:58.122Z,94.30
2022-12-31T22:05:00.434Z,94.30
2022-12-31T22:07:12.099Z,94.30
2022-12-31T22:09:38.847Z,94.30
2022-12-31T22:12:05.847Z,94.30
2022-12-31T22:14:32.749Z,94.30
2022-12-31T22:16:59.488Z,94.30
2022-12-31T22:19:26.415Z,94.40
2022-12-31T22:21:53.489Z,94.30
2022-12-31T22:24:20.245Z,94.30
2022-12-31T22:26:47.090Z,94.30
2022-12-31T22:29:14.034Z,94.30
2022-12-31T22:31:40.793Z,94.40
2022-12-31T22:34:07.696Z,94.40
2022-12-31T22:36:35.093Z,94.50
2022-12-31T22:39:01.891Z,94.50
2022-12-31T22:41:28.863Z,94.40
2022-12-31T22:44:02.975Z,94.40
2022-12-31T22:46:31.596Z,94.40
2022-12-31T22:48:59.709Z,94.50
2022-12-31T22:51:54.841Z,94.50
2022-12-31T22:54:14.571Z,94.50
2022-12-31T22:56:41.441Z,94.40
2022-12-31T22:59:08.488Z,94.50
2022-12-31T23:01:35.386Z,94.40
2022-12-31T23:04:02.515Z,94.40
2022-12-31T23:06:29.472Z,94.40
2022-12-31T23:09:15.205Z,94.40
2022-12-31T23:11:43.317Z,94.40
2022-12-31T23:14:34.196Z,94.30
2022-12-31T23:17:29.721Z,94.40
2022-12-31T23:20:17.520Z,94.40
2022-12-31T23:23:03.085Z,94.40
2022-12-31T23:25:33.248Z,94.40
2022-12-31T23:28:00.037Z,94.40
2022-12-31T23:30:26.777Z,94.40
2022-12-31T23:32:53.641Z,94.30
2022-12-31T23:35:20.582Z,94.40
2022-12-31T23:37:47.352Z,94.40
2022-12-31T23:40:20.662Z,94.40
2022-12-31T23:42:48.811Z,94.50
2022-12-31T23:45:15.743Z,94.40
2022-12-31T23:47:42.559Z,94.40
2022-12-31T23:50:09.391Z,94.40
2022-12-31T23:52:36.350Z,94.40
2022-12-31T23:55:03.771Z,94.50
2022-12-31T23:57:30.633Z,94.50
